sensor_id;sensor_type;location;lat;lon;timestamp;P1;durP1;ratioP1;P2;durP2;ratioP2
3817;SDS011;1924;48.078;11.516;2023-09-19T04:02:17;35.53;;;0.80;;
3817;SDS011;1924;48.078;11.516;2023-09-19T04:04:48;35.47;;;0.80;;
3817;SDS011;1924;48.078;11.516;2023-09-19T04:07:15;35.50;;;0.80;;
3817;SDS011;1924;48.078;11.516;2023-09-19T04:09:42;35.20;;;0.80;;
3817;SDS011;1924;48.078;11.516;2023-09-19T04:12:09;35.43;;;0.80;;
3817;SDS011;1924;48.078;11.516;2023-09-19T04:14:36;35.40;;;0.80;;
3817;SDS011;1924;48.078;11.516;2023-09-19T04:17:03;35.37;;;0.80;;
3817;SDS011;1924;48.078;11.516;2023-09-19T04:19:31;35.47;;;0.80;;
3817;SDS011;1924;48.078;11.516;2023-09-19T04:21:58;35.50;;;0.80;;
3817;SDS011;1924;48.078;11.516;2023-09-19T04:24:25;35.50;;;0.80;;
3817;SDS011;1924;48.078;11.516;2023-09-19T04:26:52;35.23;;;0.80;;
3817;SDS011;1924;48.078;11.516;2023-09-19T04:29:19;35.27;;;0.80;;
3817;SDS011;1924;48.078;11.516;2023-09-19T04:31:46;35.60;;;0.80;;
3817;SDS011;1924;48.078;11.516;2023-09-19T04:34:12;35.13;;;0.80;;
3817;SDS011;1924;48.078;11.516;2023-09-19T04:36:42;35.50;;;0.80;;
3817;SDS011;1924;48.078;11.516;2023-09-19T04:39:09;35.53;;;0.80;;
3817;SDS011;1924;48.078;11.516;2023-09-19T04:41:37;35.53;;;0.80;;
3817;SDS011;1924;48.078;11.516;2023-09-19T04:44:06;35.37;;;0.80;;
3817;SDS011;1924;48.078;11.516;2023-09-19T04:46:33;35.37;;;0.80;;
3817;SDS011;1924;48.078;11.516;2023-09-19T04:49:00;35.63;;;0.80;;
3817;SDS011;1924;48.078;11.516;2023-09-19T04:51:27;35.40;;;0.80;;
3817;SDS011;1924;48.078;11.516;2023-09-19T04:54:00;35.53;;;0.80;;
3817;SDS011;1924;48.078;11.516;2023-09-19T04:56:27;35.43;;;0.80;;
3817;SDS011;1924;48.078;11.516;2023-09-19T04:58:54;35.33;;;0.80;;
3817;SDS011;1924;48.078;11.516;2023-09-19T05:01:21;35.37;;;0.80;;
3817;SDS011;1924;48.078;11.516;2023-09-19T05:03:48;35.37;;;0.80;;
3817;SDS011;1924;48.078;11.516;2023-09-19T05:06:17;35.53;;;0.80;;
3817;SDS011;1924;48.078;11.516;2023-09-19T05:08:45;35.57;;;0.80;;
3817;SDS011;1924;48.078;11.516;2023-09-19T05:11:16;35.17;;;0.80;;
3817;SDS011;1924;48.078;11.516;2023-09-19T05:13:43;35.47;;;0.80;;
3817;SDS011;1924;48.078;11.516;2023-09-19T05:16:09;35.50;;;0.80;;
3817;SDS011;1924;48.078;11.516;2023-09-19T05:18:37;35.53;;;0.80;;
3817;SDS011;1924;48.078;11.516;2023-09-19T05:21:04;35.40;;;0.80;;
3817;SDS011;1924;48.078;11.516;2023-09-19T05:23:31;35.50;;;0.80;;
3817;SDS011;1924;48.078;11.516;2023-09-19T05:25:59;35.27;;;0.80;;
3817;SDS011;1924;48.078;11.516;2023-09-19T05:28:28;35.53;;;0.80;;
3817;SDS011;1924;48.078;11.516;2023-09-19T05:30:55;35.47;;;0.80;;
3817;SDS011;1924;48.078;11.516;2023-09-19T05:33:22;35.50;;;0.80;;
3817;SDS011;1924;48.078;11.516;2023-09-19T05:35:49;35.53;;;0.80;;
3817;SDS011;1924;48.078;11.516;2023-09-19T05:38:21;35.70;;;0.80;;
3817;SDS011;1924;48.078;11.516;2023-09-19T05:40:49;35.27;;;0.80;;
3817;SDS011;1924;48.078;11.516;2023-09-19T05:43:16;35.57;;;0.80;;
3817;SDS011;1924;48.078;11.516;2023-09-19T05:45:46;35.33;;;0.80;;
3817;SDS011;1924;48.078;11.516;2023-09-19T05:48:13;35.37;;;0.80;;
3817;SDS011;1924;48.078;11.516;2023-09-19T05:50:41;35.43;;;0.80;;
3817;SDS011;1924;48.078;11.516;2023-09-19T05:53:08;35.43;;;0.80;;
3817;SDS011;1924;48.078;11.516;2023-09-19T05:55:37;35.37;;;0.80;;
3817;SDS011;1924;48.078;11.516;2023-09-19T05:58:03;35.47;;;0.80;;
3817;SDS011;1924;48.078;11.516;2023-09-19T06:00:30;35.30;;;0.80;;
3817;SDS011;1924;48.078;11.516;2023-09-19T06:02:58;35.37;;;0.80;;
3817;SDS011;1924;48.078;11.516;2023-09-19T06:05:26;35.43;;;0.80;;
3817;SDS011;1924;48.078;11.516;2023-09-19T06:07:55;35.40;;;0.80;;
3817;SDS011;1924;48.078;11.516;2023-09-19T06:10:25;35.37;;;0.80;;
3817;SDS011;1924;48.078;11.516;2023-09-19T06:12:53;35.23;;;0.80;;
3817;SDS011;1924;48.078;11.516;2023-09-19T06:15:20;35.27;;;0.80;;
3817;SDS011;1924;48.078;11.516;2023-09-19T06:17:48;35.30;;;0.80;;
3817;SDS011;1924;48.078;11.516;2023-09-19T06:20:17;35.17;;;0.80;;
3817;SDS011;1924;48.078;11.516;2023-09-19T06:22:45;35.33;;;0.80;;
3817;SDS011;1924;48.078;11.516;2023-09-19T06:25:12;35.33;;;0.80;;
3817;SDS011;1924;48.078;11.516;2023-09-19T06:27:44;35.27;;;0.80;;
3817;SDS011;1924;48.078;11.516;2023-09-19T06:30:11;35.07;;;0.80;;
3817;SDS011;1924;48.078;11.516;2023-09-19T06:32:39;35.07;;;0.80;;
3817;SDS011;1924;48.078;11.516;2023-09-19T06:35:09;35.30;;;0.80;;
3817;SDS011;1924;48.078;11.516;2023-09-19T06:37:37;35.10;;;0.80;;
3817;SDS011;1924;48.078;11.516;2023-09-19T06:40:06;35.27;;;0.80;;
3817;SDS011;1924;48.078;11.516;2023-09-19T06:42:38;35.10;;;0.80;;
3817;SDS011;1924;48.078;11.516;2023-09-19T06:45:06;35.13;;;0.80;;
3817;SDS011;1924;48.078;11.516;2023-09-19T06:47:34;35.30;;;0.80;;
3817;SDS011;1924;48.078;11.516;2023-09-19T06:50:01;35.20;;;0.80;;
3817;SDS011;1924;48.078;11.516;2023-09-19T06:52:30;35.23;;;0.80;;
3817;SDS011;1924;48.078;11.516;2023-09-19T06:54:58;35.07;;;0.80;;
3817;SDS011;1924;48.078;11.516;2023-09-19T06:57:25;35.40;;;0.80;;
3817;SDS011;1924;48.078;11.516;2023-09-19T06:59:52;35.10;;;0.80;;
3817;SDS011;1924;48.078;11.516;2023-09-19T07:02:18;35.37;;;0.80;;
3817;SDS011;1924;48.078;11.516;2023-09-19T07:04:47;35.23;;;0.80;;
3817;SDS011;1924;48.078;11.516;2023-09-19T07:07:14;35.17;;;0.80;;
3817;SDS011;1924;48.078;11.516;2023-09-19T07:09:41;35.17;;;0.80;;
3817;SDS011;1924;48.078;11.516;2023-09-19T07:12:09;35.20;;;0.80;;
3817;SDS011;1924;48.078;11.516;2023-09-19T07:14:37;35.33;;;0.80;;
3817;SDS011;1924;48.078;11.516;2023-09-19T07:17:03;35.03;;;0.80;;
3817;SDS011;1924;48.078;11.516;2023-09-19T07:19:30;35.33;;;0.80;;
3817;SDS011;1924;48.078;11.516;2023-09-19T07:21:57;35.27;;;0.80;;
3817;SDS011;1924;48.078;11.516;2023-09-19T07:24:27;35.17;;;0.80;;
3817;SDS011;1924;48.078;11.516;2023-09-19T07:26:54;35.20;;;0.80;;
3817;SDS011;1924;48.078;11.516;2023-09-19T07:29:23;35.37;;;0.80;;
3817;SDS011;1924;48.078;11.516;2023-09-19T07:31:51;35.13;;;0.80;;
3817;SDS011;1924;48.078;11.516;2023-09-19T07:34:18;35.17;;;0.80;;
3817;SDS011;1924;48.078;11.516;2023-09-19T07:36:45;35.17;;;0.80;;
3817;SDS011;1924;48.078;11.516;2023-09-19T07:39:12;35.30;;;0.80;;
3817;SDS011;1924;48.078;11.516;2023-09-19T07:41:39;35.30;;;0.80;;
3817;SDS011;1924;48.078;11.516;2023-09-19T07:44:07;35.07;;;0.80;;
3817;SDS011;1924;48.078;11.516;2023-09-19T07:46:36;35.27;;;0.80;;
3817;SDS011;1924;48.078;11.516;2023-09-19T07:49:03;35.40;;;0.80;;
3817;SDS011;1924;48.078;11.516;2023-09-19T07:51:30;35.17;;;0.80;;
3817;SDS011;1924;48.078;11.516;2023-09-19T07:53:58;35.20;;;0.80;;
3817;SDS011;1924;48.078;11.516;2023-09-19T07:56:24;35.20;;;0.80;;
3817;SDS011;1924;48.078;11.516;2023-09-19T07:58:52;35.30;;;0.80;;
3817;SDS011;1924;48.078;11.516;2023-09-19T08:01:19;35.23;;;0.80;;
3817;SDS011;1924;48.078;11.516;2023-09-19T08:03:50;35.23;;;0.80;;
3817;SDS011;1924;48.078;11.516;2023-09-19T08:06:17;35.33;;;0.80;;
3817;SDS011;1924;48.078;11.516;2023-09-19T08:08:45;35.23;;;0.80;;
3817;SDS011;1924;48.078;11.516;2023-09-19T08:11:12;35.23;;;0.80;;
3817;SDS011;1924;48.078;11.516;2023-09-19T08:13:49;35.43;;;0.80;;
3817;SDS011;1924;48.078;11.516;2023-09-19T08:16:18;35.30;;;0.80;;
3817;SDS011;1924;48.078;11.516;2023-09-19T08:18:47;35.33;;;0.80;;
3817;SDS011;1924;48.078;11.516;2023-09-19T08:21:21;35.33;;;0.80;;
3817;SDS011;1924;48.078;11.516;2023-09-19T08:23:49;35.37;;;0.80;;
3817;SDS011;1924;48.078;11.516;2023-09-19T08:26:15;35.23;;;0.80;;
3817;SDS011;1924;48.078;11.516;2023-09-19T08:28:42;35.47;;;0.80;;
3817;SDS011;1924;48.078;11.516;2023-09-19T08:31:09;35.50;;;0.80;;
3817;SDS011;1924;48.078;11.516;2023-09-19T08:33:36;35.43;;;0.80;;
3817;SDS011;1924;48.078;11.516;2023-09-19T08:36:04;35.47;;;0.80;;
3817;SDS011;1924;48.078;11.516;2023-09-19T08:38:36;35.40;;;0.80;;
3817;SDS011;1924;48.078;11.516;2023-09-19T08:41:05;35.43;;;0.80;;
3817;SDS011;1924;48.078;11.516;2023-09-19T08:43:33;35.43;;;0.80;;
3817;SDS011;1924;48.078;11.516;2023-09-19T08:46:03;35.17;;;0.80;;
3817;SDS011;1924;48.078;11.516;2023-09-19T08:48:36;35.37;;;0.80;;
3817;SDS011;1924;48.078;11.516;2023-09-19T08:51:10;35.53;;;0.80;;
3817;SDS011;1924;48.078;11.516;2023-09-19T08:53:47;35.33;;;0.80;;
3817;SDS011;1924;48.078;11.516;2023-09-19T08:56:18;35.57;;;0.80;;
3817;SDS011;1924;48.078;11.516;2023-09-19T08:58:48;35.43;;;0.80;;
3817;SDS011;1924;48.078;11.516;2023-09-19T09:01:18;35.47;;;0.80;;
3817;SDS011;1924;48.078;11.516;2023-09-19T09:03:49;35.50;;;0.80;;
3817;SDS011;1924;48.078;11.516;2023-09-19T09:06:17;35.53;;;0.80;;
3817;SDS011;1924;48.078;11.516;2023-09-19T09:08:48;35.53;;;0.80;;
3817;SDS011;1924;48.078;11.516;2023-09-19T09:11:17;35.53;;;0.80;;
3817;SDS011;1924;48.078;11.516;2023-09-19T09:13:44;35.40;;;0.80;;
3817;SDS011;1924;48.078;11.516;2023-09-19T09:16:12;35.53;;;0.80;;
3817;SDS011;1924;48.078;11.516;2023-09-19T09:18:43;35.57;;;0.80;;
3817;SDS011;1924;48.078;11.516;2023-09-19T09:21:10;35.53;;;0.80;;
3817;SDS011;1924;48.078;11.516;2023-09-19T09:23:40;35.40;;;0.80;;
3817;SDS011;1924;48.078;11.516;2023-09-19T09:26:08;35.47;;;0.80;;
3817;SDS011;1924;48.078;11.516;2023-09-19T09:28:35;35.67;;;0.80;;
3817;SDS011;1924;48.078;11.516;2023-09-19T09:31:12;35.50;;;0.80;;
3817;SDS011;1924;48.078;11.516;2023-09-19T09:33:52;35.50;;;0.80;;
3817;SDS011;1924;48.078;11.516;2023-09-19T09:36:32;35.53;;;0.80;;
3817;SDS011;1924;48.078;11.516;2023-09-19T09:39:02;35.37;;;0.80;;
3817;SDS011;1924;48.078;11.516;2023-09-19T09:41:42;35.43;;;0.80;;
3817;SDS011;1924;48.078;11.516;2023-09-19T09:44:12;35.30;;;0.80;;
3817;SDS011;1924;48.078;11.516;2023-09-19T09:46:42;35.40;;;0.80;;
3817;SDS011;1924;48.078;11.516;2023-09-19T09:49:47;35.57;;;0.80;;
3817;SDS011;1924;48.078;11.516;2023-09-19T09:52:19;35.40;;;0.80;;
3817;SDS011;1924;48.078;11.516;2023-09-19T09:55:00;35.40;;;0.80;;
3817;SDS011;1924;48.078;11.516;2023-09-19T09:57:33;35.50;;;0.80;;
3817;SDS011;1924;48.078;11.516;2023-09-19T10:00:07;35.27;;;0.80;;
3817;SDS011;1924;48.078;11.516;2023-09-19T10:02:46;35.37;;;0.80;;
3817;SDS011;1924;48.078;11.516;2023-09-19T10:05:18;35.57;;;0.80;;
3817;SDS011;1924;48.078;11.516;2023-09-19T10:07:52;35.37;;;0.80;;
3817;SDS011;1924;48.078;11.516;2023-09-19T10:10:31;35.60;;;0.80;;
3817;SDS011;1924;48.078;11.516;2023-09-19T10:13:20;35.47;;;0.80;;
3817;SDS011;1924;48.078;11.516;2023-09-19T10:15:49;35.43;;;0.80;;
3817;SDS011;1924;48.078;11.516;2023-09-19T10:18:20;35.37;;;0.80;;
3817;SDS011;1924;48.078;11.516;2023-09-19T10:20:47;35.37;;;0.80;;
3817;SDS011;1924;48.078;11.516;2023-09-19T10:23:16;35.37;;;0.80;;
3817;SDS011;1924;48.078;11.516;2023-09-19T10:25:50;35.63;;;0.80;;
3817;SDS011;1924;48.078;11.516;2023-09-19T10:28:20;35.57;;;0.80;;
3817;SDS011;1924;48.078;11.516;2023-09-19T10:30:48;35.57;;;0.80;;
3817;SDS011;1924;48.078;11.516;2023-09-19T10:33:17;35.40;;;0.80;;
3817;SDS011;1924;48.078;11.516;2023-09-19T10:35:46;35.63;;;0.80;;
3817;SDS011;1924;48.078;11.516;2023-09-19T10:38:17;35.67;;;0.80;;
3817;SDS011;1924;48.078;11.516;2023-09-19T10:40:48;35.77;;;0.80;;
3817;SDS011;1924;48.078;11.516;2023-09-19T10:43:20;35.67;;;0.80;;
3817;SDS011;1924;48.078;11.516;2023-09-19T10:45:49;35.90;;;0.80;;
3817;SDS011;1924;48.078;11.516;2023-09-19T10:48:19;35.87;;;0.80;;
3817;SDS011;1924;48.078;11.516;2023-09-19T10:50:51;35.87;;;0.80;;
3817;SDS011;1924;48.078;11.516;2023-09-19T10:53:40;35.97;;;0.80;;
3817;SDS011;1924;48.078;11.516;2023-09-19T10:56:13;35.73;;;0.80;;
3817;SDS011;1924;48.078;11.516;2023-09-19T10:58:48;35.90;;;0.80;;
3817;SDS011;1924;48.078;11.516;2023-09-19T11:01:16;35.63;;;0.80;;
3817;SDS011;1924;48.078;11.516;2023-09-19T11:03:43;35.43;;;0.80;;
3817;SDS011;1924;48.078;11.516;2023-09-19T11:06:14;35.60;;;0.80;;
3817;SDS011;1924;48.078;11.516;2023-09-19T11:08:59;35.70;;;0.80;;
3817;SDS011;1924;48.078;11.516;2023-09-19T11:11:50;35.67;;;0.80;;
3817;SDS011;1924;48.078;11.516;2023-09-19T11:17:29;35.70;;;0.80;;
3817;SDS011;1924;48.078;11.516;2023-09-19T11:23:17;35.73;;;0.80;;
3817;SDS011;1924;48.078;11.516;2023-09-19T11:25:47;35.70;;;0.80;;
3817;SDS011;1924;48.078;11.516;2023-09-19T11:28:32;35.57;;;0.80;;
3817;SDS011;1924;48.078;11.516;2023-09-19T11:34:44;35.80;;;0.80;;
3817;SDS011;1924;48.078;11.516;2023-09-19T11:40:36;35.63;;;0.80;;
3817;SDS011;1924;48.078;11.516;2023-09-19T11:46:06;35.80;;;0.80;;
3817;SDS011;1924;48.078;11.516;2023-09-19T11:48:38;35.67;;;0.80;;
3817;SDS011;1924;48.078;11.516;2023-09-19T11:51:13;35.70;;;0.80;;
3817;SDS011;1924;48.078;11.516;2023-09-19T11:53:45;35.63;;;0.80;;
3817;SDS011;1924;48.078;11.516;2023-09-19T11:56:15;35.53;;;0.80;;
3817;SDS011;1924;48.078;11.516;2023-09-19T11:58:43;35.70;;;0.80;;
3817;SDS011;1924;48.078;11.516;2023-09-19T12:01:12;35.67;;;0.80;;
3817;SDS011;1924;48.078;11.516;2023-09-19T12:03:46;35.70;;;0.80;;
3817;SDS011;1924;48.078;11.516;2023-09-19T12:06:21;35.60;;;0.80;;
3817;SDS011;1924;48.078;11.516;2023-09-19T12:08:49;35.77;;;0.80;;
3817;SDS011;1924;48.078;11.516;2023-09-19T12:11:22;35.63;;;0.80;;
3817;SDS011;1924;48.078;11.516;2023-09-19T12:14:01;35.60;;;0.80;;
3817;SDS011;1924;48.078;11.516;2023-09-19T12:16:29;35.67;;;0.80;;
3817;SDS011;1924;48.078;11.516;2023-09-19T12:22:00;35.70;;;0.80;;
3817;SDS011;1924;48.078;11.516;2023-09-19T12:24:34;35.67;;;0.80;;
3817;SDS011;1924;48.078;11.516;2023-09-19T12:27:04;35.60;;;0.80;;
3817;SDS011;1924;48.078;11.516;2023-09-19T12:29:44;35.67;;;0.80;;
3817;SDS011;1924;48.078;11.516;2023-09-19T12:32:21;35.60;;;0.80;;
3817;SDS011;1924;48.078;11.516;2023-09-19T12:35:06;35.53;;;0.80;;
3817;SDS011;1924;48.078;11.516;2023-09-19T12:38:01;35.47;;;0.80;;
3817;SDS011;1924;48.078;11.516;2023-09-19T12:40:40;35.33;;;0.80;;
3817;SDS011;1924;48.078;11.516;2023-09-19T12:43:07;35.50;;;0.80;;
3817;SDS011;1924;48.078;11.516;2023-09-19T12:45:40;35.47;;;0.80;;
3817;SDS011;1924;48.078;11.516;2023-09-19T12:48:19;35.33;;;0.80;;
3817;SDS011;1924;48.078;11.516;2023-09-19T12:51:00;35.33;;;0.80;;
3817;SDS011;1924;48.078;11.516;2023-09-19T12:53:37;35.43;;;0.80;;
3817;SDS011;1924;48.078;11.516;2023-09-19T12:56:07;35.47;;;0.80;;
3817;SDS011;1924;48.078;11.516;2023-09-19T12:58:51;35.50;;;0.80;;
3817;SDS011;1924;48.078;11.516;2023-09-19T13:01:20;35.60;;;0.80;;
3817;SDS011;1924;48.078;11.516;2023-09-19T13:06:57;35.47;;;0.80;;
3817;SDS011;1924;48.078;11.516;2023-09-19T13:09:28;35.37;;;0.80;;
3817;SDS011;1924;48.078;11.516;2023-09-19T13:11:59;35.47;;;0.80;;
3817;SDS011;1924;48.078;11.516;2023-09-19T13:14:27;35.47;;;0.80;;
3817;SDS011;1924;48.078;11.516;2023-09-19T13:16:59;35.47;;;0.80;;
3817;SDS011;1924;48.078;11.516;2023-09-19T13:19:41;35.47;;;0.80;;
3817;SDS011;1924;48.078;11.516;2023-09-19T13:25:09;35.70;;;0.80;;
3817;SDS011;1924;48.078;11.516;2023-09-19T13:27:41;35.57;;;0.80;;
3817;SDS011;1924;48.078;11.516;2023-09-19T13:30:09;35.73;;;0.80;;
3817;SDS011;1924;48.078;11.516;2023-09-19T13:32:37;35.80;;;0.80;;
3817;SDS011;1924;48.078;11.516;2023-09-19T13:35:06;35.80;;;0.80;;
3817;SDS011;1924;48.078;11.516;2023-09-19T13:37:34;35.77;;;0.80;;
3817;SDS011;1924;48.078;11.516;2023-09-19T13:40:06;35.80;;;0.80;;
3817;SDS011;1924;48.078;11.516;2023-09-19T13:42:39;35.67;;;0.83;;
3817;SDS011;1924;48.078;11.516;2023-09-19T13:45:07;35.77;;;0.80;;
3817;SDS011;1924;48.078;11.516;2023-09-19T13:47:37;35.83;;;0.80;;
3817;SDS011;1924;48.078;11.516;2023-09-19T13:50:14;36.03;;;0.80;;
3817;SDS011;1924;48.078;11.516;2023-09-19T13:52:42;35.83;;;0.80;;
3817;SDS011;1924;48.078;11.516;2023-09-19T13:55:10;35.70;;;0.80;;
3817;SDS011;1924;48.078;11.516;2023-09-19T13:57:45;35.87;;;0.80;;
3817;SDS011;1924;48.078;11.516;2023-09-19T14:00:12;35.87;;;0.80;;
3817;SDS011;1924;48.078;11.516;2023-09-19T14:02:41;35.67;;;0.80;;
3817;SDS011;1924;48.078;11.516;2023-09-19T14:05:09;35.63;;;0.80;;
3817;SDS011;1924;48.078;11.516;2023-09-19T14:07:37;35.60;;;0.80;;
3817;SDS011;1924;48.078;11.516;2023-09-19T14:10:06;35.47;;;0.80;;
3817;SDS011;1924;48.078;11.516;2023-09-19T14:12:36;35.67;;;0.80;;
3817;SDS011;1924;48.078;11.516;2023-09-19T14:15:07;35.67;;;0.80;;
3817;SDS011;1924;48.078;11.516;2023-09-19T14:17:35;35.77;;;0.80;;
3817;SDS011;1924;48.078;11.516;2023-09-19T14:20:02;35.83;;;0.80;;
3817;SDS011;1924;48.078;11.516;2023-09-19T14:22:31;35.70;;;0.80;;
3817;SDS011;1924;48.078;11.516;2023-09-19T14:24:58;35.77;;;0.80;;
3817;SDS011;1924;48.078;11.516;2023-09-19T14:27:25;35.77;;;0.80;;
3817;SDS011;1924;48.078;11.516;2023-09-19T14:29:53;35.73;;;0.80;;
3817;SDS011;1924;48.078;11.516;2023-09-19T14:32:21;35.77;;;0.80;;
3817;SDS011;1924;48.078;11.516;2023-09-19T14:34:58;35.80;;;0.80;;
3817;SDS011;1924;48.078;11.516;2023-09-19T14:37:25;35.67;;;0.80;;
3817;SDS011;1924;48.078;11.516;2023-09-19T14:39:53;35.70;;;0.80;;
3817;SDS011;1924;48.078;11.516;2023-09-19T14:42:19;35.80;;;0.80;;
3817;SDS011;1924;48.078;11.516;2023-09-19T14:44:46;35.70;;;0.80;;
3817;SDS011;1924;48.078;11.516;2023-09-19T14:47:15;35.67;;;0.80;;
3817;SDS011;1924;48.078;11.516;2023-09-19T14:49:42;35.77;;;0.80;;
3817;SDS011;1924;48.078;11.516;2023-09-19T14:52:12;35.70;;;0.80;;
3817;SDS011;1924;48.078;11.516;2023-09-19T14:54:45;35.73;;;0.80;;
3817;SDS011;1924;48.078;11.516;2023-09-19T14:57:12;35.60;;;0.80;;
3817;SDS011;1924;48.078;11.516;2023-09-19T14:59:39;35.77;;;0.80;;
3817;SDS011;1924;48.078;11.516;2023-09-19T15:02:06;35.77;;;0.80;;
3817;SDS011;1924;48.078;11.516;2023-09-19T15:04:37;35.80;;;0.80;;
3817;SDS011;1924;48.078;11.516;2023-09-19T15:07:05;35.67;;;0.80;;
3817;SDS011;1924;48.078;11.516;2023-09-19T15:09:32;35.77;;;0.80;;
3817;SDS011;1924;48.078;11.516;2023-09-19T15:11:59;35.67;;;0.80;;
3817;SDS011;1924;48.078;11.516;2023-09-19T15:14:26;35.67;;;0.80;;
3817;SDS011;1924;48.078;11.516;2023-09-19T15:16:54;35.63;;;0.80;;
3817;SDS011;1924;48.078;11.516;2023-09-19T15:19:21;35.77;;;0.80;;
3817;SDS011;1924;48.078;11.516;2023-09-19T15:21:49;35.67;;;0.80;;
3817;SDS011;1924;48.078;11.516;2023-09-19T15:24:16;35.67;;;0.80;;
3817;SDS011;1924;48.078;11.516;2023-09-19T15:26:45;35.73;;;0.80;;
3817;SDS011;1924;48.078;11.516;2023-09-19T15:29:12;35.60;;;0.80;;
3817;SDS011;1924;48.078;11.516;2023-09-19T15:31:41;35.53;;;0.80;;
3817;SDS011;1924;48.078;11.516;2023-09-19T15:34:08;35.70;;;0.80;;
3817;SDS011;1924;48.078;11.516;2023-09-19T15:36:41;35.57;;;0.80;;
3817;SDS011;1924;48.078;11.516;2023-09-19T15:39:10;35.73;;;0.80;;
3817;SDS011;1924;48.078;11.516;2023-09-19T15:41:37;35.77;;;0.80;;
3817;SDS011;1924;48.078;11.516;2023-09-19T15:44:11;35.70;;;0.80;;
3817;SDS011;1924;48.078;11.516;2023-09-19T15:46:39;35.67;;;0.80;;
3817;SDS011;1924;48.078;11.516;2023-09-19T15:49:06;35.47;;;0.80;;
3817;SDS011;1924;48.078;11.516;2023-09-19T15:51:33;35.83;;;0.80;;
3817;SDS011;1924;48.078;11.516;2023-09-19T15:54:01;35.77;;;0.80;;
3817;SDS011;1924;48.078;11.516;2023-09-19T15:56:35;35.90;;;0.80;;
3817;SDS011;1924;48.078;11.516;2023-09-19T15:59:02;35.90;;;0.80;;
3817;SDS011;1924;48.078;11.516;2023-09-19T16:01:30;35.60;;;0.80;;
3817;SDS011;1924;48.078;11.516;2023-09-19T16:03:57;35.73;;;0.80;;
3817;SDS011;1924;48.078;11.516;2023-09-19T16:06:24;35.87;;;0.80;;
3817;SDS011;1924;48.078;11.516;2023-09-19T16:08:52;35.70;;;0.80;;
3817;SDS011;1924;48.078;11.516;2023-09-19T16:11:23;35.77;;;0.80;;
3817;SDS011;1924;48.078;11.516;2023-09-19T16:13:53;35.70;;;0.80;;
3817;SDS011;1924;48.078;11.516;2023-09-19T16:16:21;35.57;;;0.80;;
3817;SDS011;1924;48.078;11.516;2023-09-19T16:18:53;35.70;;;0.80;;
3817;SDS011;1924;48.078;11.516;2023-09-19T16:21:26;35.63;;;0.80;;
3817;SDS011;1924;48.078;11.516;2023-09-19T16:23:54;35.73;;;0.80;;
3817;SDS011;1924;48.078;11.516;2023-09-19T16:26:22;35.87;;;0.80;;
3817;SDS011;1924;48.078;11.516;2023-09-19T16:28:50;35.77;;;0.80;;
3817;SDS011;1924;48.078;11.516;2023-09-19T16:31:20;35.87;;;0.80;;
3817;SDS011;1924;48.078;11.516;2023-09-19T16:33:47;35.87;;;0.80;;
3817;SDS011;1924;48.078;11.516;2023-09-19T16:36:15;35.87;;;0.80;;
3817;SDS011;1924;48.078;11.516;2023-09-19T16:38:43;35.87;;;0.80;;
3817;SDS011;1924;48.078;11.516;2023-09-19T16:41:11;35.77;;;0.80;;
3817;SDS011;1924;48.078;11.516;2023-09-19T16:43:39;35.70;;;0.80;;
3817;SDS011;1924;48.078;11.516;2023-09-19T16:46:07;35.90;;;0.80;;
3817;SDS011;1924;48.078;11.516;2023-09-19T16:48:38;35.90;;;0.80;;
3817;SDS011;1924;48.078;11.516;2023-09-19T16:51:07;36.00;;;0.80;;
3817;SDS011;1924;48.078;11.516;2023-09-19T16:53:35;35.63;;;0.80;;
3817;SDS011;1924;48.078;11.516;2023-09-19T16:56:03;35.83;;;0.80;;
3817;SDS011;1924;48.078;11.516;2023-09-19T16:58:33;36.03;;;0.80;;
3817;SDS011;1924;48.078;11.516;2023-09-19T17:01:00;35.90;;;0.80;;
3817;SDS011;1924;48.078;11.516;2023-09-19T17:03:27;35.90;;;0.80;;
3817;SDS011;1924;48.078;11.516;2023-09-19T17:06:00;35.90;;;0.80;;
3817;SDS011;1924;48.078;11.516;2023-09-19T17:08:28;36.00;;;0.80;;
3817;SDS011;1924;48.078;11.516;2023-09-19T17:11:02;35.77;;;0.80;;
3817;SDS011;1924;48.078;11.516;2023-09-19T17:13:30;35.97;;;0.80;;
3817;SDS011;1924;48.078;11.516;2023-09-19T17:15:59;35.83;;;0.80;;
3817;SDS011;1924;48.078;11.516;2023-09-19T17:18:28;35.87;;;0.80;;
3817;SDS011;1924;48.078;11.516;2023-09-19T17:20:56;35.93;;;0.80;;
3817;SDS011;1924;48.078;11.516;2023-09-19T17:23:26;35.77;;;0.80;;
3817;SDS011;1924;48.078;11.516;2023-09-19T17:26:00;35.77;;;0.80;;
3817;SDS011;1924;48.078;11.516;2023-09-19T17:28:28;35.87;;;0.80;;
3817;SDS011;1924;48.078;11.516;2023-09-19T17:30:56;35.67;;;0.80;;
3817;SDS011;1924;48.078;11.516;2023-09-19T17:33:23;35.87;;;0.80;;
3817;SDS011;1924;48.078;11.516;2023-09-19T17:35:51;35.87;;;0.80;;
3817;SDS011;1924;48.078;11.516;2023-09-19T17:38:19;35.80;;;0.80;;
3817;SDS011;1924;48.078;11.516;2023-09-19T17:40:49;35.70;;;0.80;;
3817;SDS011;1924;48.078;11.516;2023-09-19T17:43:16;35.83;;;0.80;;
3817;SDS011;1924;48.078;11.516;2023-09-19T17:45:43;35.80;;;0.80;;
3817;SDS011;1924;48.078;11.516;2023-09-19T17:48:11;35.77;;;0.80;;
3817;SDS011;1924;48.078;11.516;2023-09-19T17:50:38;35.90;;;0.80;;
3817;SDS011;1924;48.078;11.516;2023-09-19T17:53:06;36.07;;;0.80;;
3817;SDS011;1924;48.078;11.516;2023-09-19T17:55:36;36.00;;;0.80;;
3817;SDS011;1924;48.078;11.516;2023-09-19T17:58:04;35.83;;;0.80;;
3817;SDS011;1924;48.078;11.516;2023-09-19T18:00:31;35.87;;;0.80;;
3817;SDS011;1924;48.078;11.516;2023-09-19T18:03:02;35.93;;;0.80;;
3817;SDS011;1924;48.078;11.516;2023-09-19T18:05:29;36.07;;;0.80;;
3817;SDS011;1924;48.078;11.516;2023-09-19T18:07:56;35.93;;;0.80;;
3817;SDS011;1924;48.078;11.516;2023-09-19T18:10:23;36.00;;;0.80;;
3817;SDS011;1924;48.078;11.516;2023-09-19T18:12:50;35.97;;;0.80;;
3817;SDS011;1924;48.078;11.516;2023-09-19T18:15:18;36.27;;;0.80;;
3817;SDS011;1924;48.078;11.516;2023-09-19T18:17:44;36.27;;;0.80;;
3817;SDS011;1924;48.078;11.516;2023-09-19T18:20:11;36.17;;;0.80;;
3817;SDS011;1924;48.078;11.516;2023-09-19T18:22:40;36.23;;;0.80;;
3817;SDS011;1924;48.078;11.516;2023-09-19T18:25:06;36.30;;;0.80;;
3817;SDS011;1924;48.078;11.516;2023-09-19T18:27:34;36.13;;;0.80;;
3817;SDS011;1924;48.078;11.516;2023-09-19T18:30:03;36.20;;;0.80;;
3817;SDS011;1924;48.078;11.516;2023-09-19T18:32:32;36.37;;;0.80;;
3817;SDS011;1924;48.078;11.516;2023-09-19T18:34:59;36.27;;;0.80;;
3817;SDS011;1924;48.078;11.516;2023-09-19T18:37:28;36.20;;;0.80;;
3817;SDS011;1924;48.078;11.516;2023-09-19T18:39:56;36.30;;;0.80;;
3817;SDS011;1924;48.078;11.516;2023-09-19T18:42:23;36.03;;;0.80;;
3817;SDS011;1924;48.078;11.516;2023-09-19T18:44:51;36.13;;;0.80;;
3817;SDS011;1924;48.078;11.516;2023-09-19T18:47:18;36.17;;;0.80;;
3817;SDS011;1924;48.078;11.516;2023-09-19T18:49:49;36.03;;;0.80;;
3817;SDS011;1924;48.078;11.516;2023-09-19T18:52:16;36.20;;;0.80;;
3817;SDS011;1924;48.078;11.516;2023-09-19T18:54:42;36.27;;;0.80;;
3817;SDS011;1924;48.078;11.516;2023-09-19T18:57:09;36.30;;;0.80;;
3817;SDS011;1924;48.078;11.516;2023-09-19T18:59:37;36.17;;;0.80;;
3817;SDS011;1924;48.078;11.516;2023-09-19T19:02:05;35.90;;;0.80;;
3817;SDS011;1924;48.078;11.516;2023-09-19T19:04:32;36.10;;;0.80;;
3817;SDS011;1924;48.078;11.516;2023-09-19T19:07:00;36.00;;;0.80;;
3817;SDS011;1924;48.078;11.516;2023-09-19T19:09:28;36.00;;;0.80;;
3817;SDS011;1924;48.078;11.516;2023-09-19T19:11:54;36.27;;;0.80;;
3817;SDS011;1924;48.078;11.516;2023-09-19T19:14:22;36.07;;;0.80;;
3817;SDS011;1924;48.078;11.516;2023-09-19T19:16:50;36.27;;;0.80;;
3817;SDS011;1924;48.078;11.516;2023-09-19T19:19:18;35.83;;;0.80;;
3817;SDS011;1924;48.078;11.516;2023-09-19T19:21:45;36.13;;;0.80;;
3817;SDS011;1924;48.078;11.516;2023-09-19T19:24:14;35.87;;;0.80;;
3817;SDS011;1924;48.078;11.516;2023-09-19T19:26:42;36.13;;;0.80;;
3817;SDS011;1924;48.078;11.516;2023-09-19T19:29:10;36.00;;;0.80;;